24 Datensätze sind 1 Tag. Aufzeichnung ab 07. Oktober 2014.
Werte (Summe von Anzahl und Position darf nicht größer sein als mögliche Datensätze).
Anzahl:
Position: Summe:
\ 14894 Datensätze möglich.
  20 letzte Aufzeichnungen
gezeigte Daten 20 ab Position 1    Summe der Auswahl = 21
26.08.2016 / 09:30 Uhr bis 27.08.2016 / 04:30 Uhr
Regenmenge 0 Liter

Datum/Zeit Temp. Taupunkt Luftfeuchte Wind speed Wind böhe Wind Temp. Regen Summe Luftdruck
27.08.2016 | 05:30 Uhr 17.1C 12.6C 75% 0.0 kmh 0.0kmh 14.9C 0.0mm 1000.9111mBar/hPa
27.08.2016 | 04:30 Uhr 16.7C 11.6C 72% 0.0 kmh 0.0kmh 14.1C 0.0mm 1000.5361mBar/hPa
27.08.2016 | 03:30 Uhr 17.2C 11.7C 70% 0.0 kmh 0.0kmh 14.7C 0.0mm 1000.1611mBar/hPa
27.08.2016 | 02:30 Uhr 17.9C 12.1C 69% 0.0 kmh 0.0kmh 15.2C 0.0mm 999.9736mBar/hPa
27.08.2016 | 01:30 Uhr 18.5C 12.3C 67% 0.0 kmh 0.0kmh 16.1C 0.0mm 999.6611mBar/hPa
27.08.2016 | 00:30 Uhr 19.1C 12.1C 64% 0.0 kmh 0.0kmh 16.9C 0.0mm 999.7236mBar/hPa
26.08.2016 | 23:30 Uhr 19.7C 12.7C 64% 0.0 kmh 0.0kmh 17.7C 0.0mm 999.9736mBar/hPa
26.08.2016 | 22:30 Uhr 20.0C 13.0C 64% 0.0 kmh 0.0kmh 17.6C 0.0mm 999.8486mBar/hPa
26.08.2016 | 21:30 Uhr 19.9C 12.9C 64% 0.0 kmh 0.0kmh 17.2C 0.0mm 999.8486mBar/hPa
26.08.2016 | 20:30 Uhr 20.2C 13.4C 65% 0.0 kmh 0.0kmh 17.7C 0.0mm 999.6611mBar/hPa
26.08.2016 | 19:30 Uhr 21.5C 13.7C 61% 0.0 kmh 0.0kmh 18.7C 0.0mm 999.5361mBar/hPa
26.08.2016 | 18:30 Uhr 23.9C 14.6C 56% 0.0 kmh 0.0kmh 20.9C 0.0mm 999.1611mBar/hPa
26.08.2016 | 17:30 Uhr 26.9C 15.9C 51% 0.0 kmh 0.0kmh 25.4C 0.0mm 998.8486mBar/hPa
26.08.2016 | 16:30 Uhr 28.8C 15.3C 44% 0.0 kmh 0.1kmh 28.9C 0.0mm 998.8486mBar/hPa
26.08.2016 | 15:30 Uhr 28.8C 15.3C 44% 0.0 kmh 0.1kmh 28.9C 0.0mm 998.8486mBar/hPa
26.08.2016 | 14:30 Uhr 29.1C 15.2C 43% 2.1 kmh 0.1kmh 32.2C 0.0mm 998.9111mBar/hPa
26.08.2016 | 13:30 Uhr 28.9C 15.4C 44% 0.1 kmh 0.2kmh 31.8C 0.0mm 999.4736mBar/hPa
26.08.2016 | 12:30 Uhr 28.4C 14.6C 43% 8.1 kmh 0.4kmh 30.7C 0.0mm 999.9111mBar/hPa
26.08.2016 | 11:30 Uhr 27.7C 14.0C 43% 0.0 kmh 0.4kmh 29.7C 0.0mm 1000.0361mBar/hPa
26.08.2016 | 10:30 Uhr 26.5C 14.9C 49% 0.0 kmh 0.1kmh 27.3C 0.0mm 1000.1611mBar/hPa